Terminal Aerodrome Forecast
Issued by NWS

Home | Current Version | Previous Version | Text Only | Print | Product List | Glossary On
Versions: 1 2 3 4 5 6 7 8 9 10 11 12 13
000
FTUS45 KPSR 261120
TAFIWA
TAF
KIWA 261120Z 2612/2712 12005KT P6SM SCT200
      TEMPO 2617/2620 VRB03KT
     FM262000 27006KT P6SM SCT200
     FM270300 VRB03KT P6SM SCT200
     FM270600 11006KT P6SM FEW250
      AMD LTD TO CLD VIS AND WIND TIL 261300=

USA.gov is the U.S. government's official web portal to all federal, state and local government web resources and services.